Norfolk, Virginia
Traffic Map
Current Weather Conditions
Norfolk, Virginia
Clear Thunderstorm
Clear
24°
Feels Like: 24°
Wind Chill: 24° Ceiling: Unl
Heat Index: 24° Visibility: 10mi
Dew Point: 13° Wind: 15mph
Humidity: 50% Direction: 200° (SSW)
Pressure: 29.49in Gusts: 26mph
Raw Report DataKORF 252229Z 20013G23KT 10SM TS CLR 24/13 A2949 RMK AO2 PK WND 21032/2209 LTG DSNT ALQDS TSB23 T02440133
Traffic Incident Summary
Active as of:
Severity:
Category:
InformationThere was an issue retrieving the traffic information for this location. Please try a different location or try again shortly.
Advertisements
Track Severe Weather on mobile